createdAt,value
2023-05-21T00:01:43.043Z,19.29
2023-05-21T00:04:17.181Z,19.29
2023-05-21T00:06:50.622Z,19.24
2023-05-21T00:09:23.883Z,19.27
2023-05-21T00:11:54.670Z,19.24
2023-05-21T00:14:26.088Z,19.20
2023-05-21T00:16:58.121Z,19.22
2023-05-21T00:19:29.557Z,19.27
2023-05-21T00:22:03.769Z,19.30
2023-05-21T00:24:35.648Z,19.24
2023-05-21T00:27:07.215Z,19.27
2023-05-21T00:29:38.080Z,19.27
2023-05-21T00:32:09.512Z,19.20
2023-05-21T00:34:40.136Z,19.09
2023-05-21T00:37:18.168Z,19.09
2023-05-21T00:39:49.605Z,19.03
2023-05-21T00:42:24.395Z,19.00
2023-05-21T00:44:57.213Z,18.92
2023-05-21T00:47:31.692Z,18.98
2023-05-21T00:50:06.321Z,18.95
2023-05-21T00:52:43.136Z,18.91
2023-05-21T00:55:15.389Z,18.89
2023-05-21T00:57:48.628Z,18.92
2023-05-21T01:00:20.801Z,18.89
2023-05-21T01:02:52.943Z,18.95
2023-05-21T01:05:26.702Z,18.92
2023-05-21T01:08:00.814Z,18.88
2023-05-21T01:10:34.253Z,18.81
2023-05-21T01:13:08.537Z,18.79
2023-05-21T01:15:42.783Z,18.81
2023-05-21T01:18:22.207Z,18.75
2023-05-21T01:20:55.842Z,18.68
2023-05-21T01:23:27.700Z,18.67
2023-05-21T01:25:58.089Z,18.68
2023-05-21T01:28:35.607Z,18.69
2023-05-21T01:31:36.766Z,18.69
2023-05-21T01:34:10.536Z,18.68
2023-05-21T01:36:50.948Z,18.71
2023-05-21T01:42:27.716Z,18.59
2023-05-21T01:45:04.660Z,18.57
2023-05-21T01:47:39.548Z,18.52
2023-05-21T01:50:11.868Z,18.54
2023-05-21T01:52:55.255Z,18.54
2023-05-21T01:55:29.850Z,18.44
2023-05-21T01:58:04.008Z,18.52
2023-05-21T02:00:36.664Z,18.43
2023-05-21T02:03:08.520Z,18.48
2023-05-21T02:05:40.477Z,18.44
2023-05-21T02:08:12.386Z,18.43
2023-05-21T02:10:46.202Z,18.41
2023-05-21T02:13:17.317Z,18.37
2023-05-21T02:15:49.983Z,18.36
2023-05-21T02:18:23.542Z,18.36
2023-05-21T02:20:54.805Z,18.33
2023-05-21T02:23:27.905Z,18.33
2023-05-21T02:25:59.105Z,18.27
2023-05-21T02:28:31.291Z,18.26
2023-05-21T02:31:03.644Z,18.24
2023-05-21T02:33:35.216Z,18.27
2023-05-21T02:36:06.878Z,18.27
2023-05-21T02:38:40.549Z,18.24
2023-05-21T02:41:12.553Z,18.23
2023-05-21T02:43:43.861Z,18.20
2023-05-21T02:46:17.921Z,18.30
2023-05-21T02:48:48.677Z,18.23
2023-05-21T02:51:19.983Z,18.26
2023-05-21T02:53:51.323Z,18.18
2023-05-21T02:56:23.394Z,18.23
2023-05-21T02:58:55.140Z,18.20
2023-05-21T03:01:25.687Z,18.20
2023-05-21T03:03:56.858Z,18.26
2023-05-21T03:06:27.678Z,18.30
2023-05-21T03:09:01.136Z,18.26
2023-05-21T03:11:32.905Z,18.21
2023-05-21T03:14:03.557Z,18.10
2023-05-21T03:16:37.279Z,18.07
2023-05-21T03:19:08.910Z,18.08
2023-05-21T03:21:40.514Z,18.08
2023-05-21T03:24:11.668Z,18.03
2023-05-21T03:26:41.867Z,18.00
2023-05-21T03:29:13.455Z,17.97
2023-05-21T03:31:45.424Z,18.01
2023-05-21T03:34:18.782Z,17.96
2023-05-21T03:36:51.106Z,17.96
2023-05-21T03:39:23.624Z,17.87
2023-05-21T03:41:55.699Z,17.86
2023-05-21T03:44:36.182Z,17.83
2023-05-21T03:47:43.190Z,17.77
2023-05-21T03:50:15.313Z,17.79
2023-05-21T03:52:46.584Z,17.79
2023-05-21T03:55:18.110Z,17.75
2023-05-21T03:57:48.646Z,17.69
2023-05-21T04:00:19.037Z,17.69
2023-05-21T04:02:52.954Z,17.61
2023-05-21T04:05:24.188Z,17.66
2023-05-21T04:07:56.482Z,17.57
2023-05-21T04:10:27.722Z,17.62
2023-05-21T04:13:03.648Z,17.61
2023-05-21T04:15:36.687Z,17.66
2023-05-21T04:18:09.508Z,17.62
2023-05-21T04:20:40.461Z,17.61
2023-05-21T04:23:21.667Z,17.62
2023-05-21T04:25:56.012Z,17.66
2023-05-21T04:28:31.458Z,17.65
2023-05-21T04:31:02.466Z,17.77
2023-05-21T04:33:33.650Z,17.73
2023-05-21T04:36:06.740Z,17.69
2023-05-21T04:38:39.110Z,17.70
2023-05-21T04:41:13.475Z,17.66
2023-05-21T04:43:46.085Z,17.66
2023-05-21T04:46:18.742Z,17.67
2023-05-21T04:48:49.220Z,17.61
2023-05-21T04:51:20.548Z,17.49
2023-05-21T04:53:52.192Z,17.49
2023-05-21T04:56:28.592Z,17.47
2023-05-21T04:59:01.634Z,17.49
2023-05-21T05:01:33.799Z,17.45
2023-05-21T05:04:05.331Z,17.38
2023-05-21T05:06:36.765Z,17.35
2023-05-21T05:09:08.779Z,17.40
2023-05-21T05:11:40.196Z,17.42
2023-05-21T05:14:11.873Z,17.40
2023-05-21T05:16:42.782Z,17.40
2023-05-21T05:19:13.301Z,17.33
2023-05-21T05:21:44.062Z,17.35
2023-05-21T05:24:15.472Z,17.33
2023-05-21T05:26:47.735Z,17.33
2023-05-21T05:29:19.820Z,17.35
2023-05-21T05:31:52.674Z,17.32
2023-05-21T05:34:26.554Z,17.38
2023-05-21T05:36:58.744Z,17.33
2023-05-21T05:39:29.228Z,17.38
2023-05-21T05:42:02.374Z,17.32
2023-05-21T05:44:34.349Z,17.32
2023-05-21T05:47:11.276Z,17.32
2023-05-21T05:49:43.864Z,17.28
2023-05-21T05:52:15.424Z,17.22
2023-05-21T05:54:46.432Z,17.18
2023-05-21T05:57:17.098Z,17.21
2023-05-21T05:59:51.053Z,17.18
2023-05-21T06:02:22.376Z,17.19
2023-05-21T06:04:53.392Z,17.21
2023-05-21T06:07:24.250Z,17.22
2023-05-21T06:09:55.471Z,17.19
2023-05-21T06:12:27.755Z,17.12
2023-05-21T06:14:59.557Z,17.21
2023-05-21T06:17:31.227Z,17.22
2023-05-21T06:20:02.828Z,17.18
2023-05-21T06:22:34.402Z,17.19
2023-05-21T06:25:07.699Z,17.21
2023-05-21T06:27:39.553Z,17.23
2023-05-21T06:30:16.544Z,17.19
2023-05-21T06:32:47.288Z,17.19
2023-05-21T06:35:18.249Z,17.21
2023-05-21T06:37:50.130Z,17.16
2023-05-21T06:40:21.084Z,17.12
2023-05-21T06:42:53.454Z,17.12
2023-05-21T06:45:40.478Z,17.11
2023-05-21T06:48:31.136Z,17.12
2023-05-21T06:51:02.884Z,17.10
2023-05-21T06:53:33.544Z,17.05
2023-05-21T06:56:04.516Z,17.02
2023-05-21T06:58:46.780Z,17.05
2023-05-21T07:01:19.210Z,17.07
2023-05-21T07:03:49.943Z,17.04
2023-05-21T07:06:21.961Z,17.04
2023-05-21T07:08:53.948Z,16.95
2023-05-21T07:11:27.291Z,16.98
2023-05-21T07:14:03.145Z,16.91
2023-05-21T07:16:36.611Z,16.89
2023-05-21T07:19:08.278Z,16.94
2023-05-21T07:21:40.226Z,16.92
2023-05-21T07:24:11.571Z,16.92
2023-05-21T07:26:44.905Z,16.87
2023-05-21T07:29:16.604Z,16.88
2023-05-21T07:31:48.421Z,16.91
2023-05-21T07:34:19.741Z,16.85
2023-05-21T07:36:50.890Z,16.85
2023-05-21T07:39:22.768Z,16.88
2023-05-21T07:41:54.978Z,16.88
2023-05-21T07:44:28.932Z,16.87
2023-05-21T07:47:01.210Z,16.81
2023-05-21T07:49:32.733Z,16.84
2023-05-21T07:52:04.710Z,16.87
2023-05-21T07:54:36.260Z,16.85
2023-05-21T07:57:07.859Z,16.85
2023-05-21T08:00:00.685Z,16.88
2023-05-21T08:02:34.731Z,16.88
2023-05-21T08:05:06.501Z,16.89
2023-05-21T08:07:37.693Z,16.85
2023-05-21T08:10:09.728Z,16.85
2023-05-21T08:12:43.157Z,16.91
2023-05-21T08:15:15.044Z,16.89
2023-05-21T08:17:48.135Z,16.92
2023-05-21T08:20:19.581Z,16.89
2023-05-21T08:22:52.035Z,16.88
2023-05-21T08:25:23.813Z,16.84
2023-05-21T08:27:55.458Z,16.81
2023-05-21T08:30:26.791Z,16.85
2023-05-21T08:32:57.863Z,16.84
2023-05-21T08:35:30.478Z,16.88
2023-05-21T08:38:08.488Z,16.81
2023-05-21T08:40:51.335Z,16.80
2023-05-21T08:43:23.552Z,16.77
2023-05-21T08:46:02.031Z,16.75
2023-05-21T08:48:36.419Z,16.75
2023-05-21T08:51:07.290Z,16.72
2023-05-21T08:53:47.914Z,16.67
2023-05-21T08:56:20.715Z,16.61
2023-05-21T08:59:02.754Z,16.64
2023-05-21T09:01:40.483Z,16.64
2023-05-21T09:04:31.419Z,16.67
2023-05-21T09:07:05.147Z,16.68
2023-05-21T09:10:12.094Z,16.65
2023-05-21T09:12:44.621Z,16.71
2023-05-21T09:15:15.895Z,16.67
2023-05-21T09:17:50.408Z,16.70
2023-05-21T09:20:41.237Z,16.63
2023-05-21T09:23:20.391Z,16.63
2023-05-21T09:25:54.971Z,16.64
2023-05-21T09:28:31.881Z,16.67
2023-05-21T09:31:06.368Z,16.74
2023-05-21T09:33:38.064Z,16.75
2023-05-21T09:36:10.947Z,16.72
2023-05-21T09:38:42.340Z,16.72
2023-05-21T09:41:13.920Z,16.71
2023-05-21T09:43:48.934Z,16.68
2023-05-21T09:46:28.512Z,16.71
2023-05-21T09:48:59.021Z,16.74
2023-05-21T09:51:31.120Z,16.78
2023-05-21T09:54:02.305Z,16.80
2023-05-21T09:56:33.533Z,16.70
2023-05-21T09:59:09.733Z,16.64
2023-05-21T10:01:41.902Z,16.67
2023-05-21T10:04:13.756Z,16.78
2023-05-21T10:06:53.037Z,16.84
2023-05-21T10:09:28.481Z,16.80
2023-05-21T10:12:01.190Z,16.74
2023-05-21T10:14:35.595Z,16.74
2023-05-21T10:17:08.925Z,16.85
2023-05-21T10:19:41.991Z,16.91
2023-05-21T10:22:13.229Z,16.95
2023-05-21T10:24:46.414Z,16.98
2023-05-21T10:27:17.701Z,17.00
2023-05-21T10:29:49.673Z,16.96
2023-05-21T10:32:20.961Z,17.05
2023-05-21T10:35:01.341Z,17.10
2023-05-21T10:37:32.945Z,17.12
2023-05-21T10:40:05.323Z,17.16
2023-05-21T10:42:35.734Z,17.22
2023-05-21T10:45:10.945Z,17.23
2023-05-21T10:47:59.800Z,17.29
2023-05-21T10:50:47.756Z,17.36
2023-05-21T10:53:57.387Z,17.42
2023-05-21T10:56:49.829Z,17.49
2023-05-21T10:59:40.382Z,17.52
2023-05-21T11:02:22.966Z,17.61
2023-05-21T11:05:01.153Z,17.75
2023-05-21T11:08:04.232Z,17.87
2023-05-21T11:10:45.251Z,17.90
2023-05-21T11:13:19.267Z,18.04
2023-05-21T11:16:17.511Z,18.08
2023-05-21T11:18:48.720Z,18.07
2023-05-21T11:21:21.885Z,18.20
2023-05-21T11:23:59.358Z,18.47
2023-05-21T11:26:53.965Z,18.51
2023-05-21T11:29:35.775Z,18.78
2023-05-21T11:32:07.987Z,18.84
2023-05-21T11:34:48.231Z,19.03
2023-05-21T11:37:35.089Z,19.19
2023-05-21T11:40:27.412Z,19.39
2023-05-21T11:43:00.154Z,19.46
2023-05-21T11:45:34.010Z,19.57
2023-05-21T11:48:06.249Z,19.64
2023-05-21T11:50:37.965Z,19.75
2023-05-21T11:53:11.240Z,19.81
2023-05-21T11:55:46.044Z,19.74
2023-05-21T11:58:18.536Z,19.67
2023-05-21T12:00:56.065Z,19.73
2023-05-21T12:03:28.925Z,19.71
2023-05-21T12:06:08.547Z,19.78
2023-05-21T12:08:40.616Z,19.84
2023-05-21T12:11:12.293Z,19.88
2023-05-21T12:13:43.082Z,19.94
2023-05-21T12:16:14.266Z,19.98
2023-05-21T12:18:45.342Z,20.05
2023-05-21T12:21:19.197Z,20.15
2023-05-21T12:23:50.880Z,20.21
2023-05-21T12:26:21.464Z,20.15
2023-05-21T12:28:55.327Z,20.22
2023-05-21T12:31:27.078Z,20.25
2023-05-21T12:33:58.284Z,20.29
2023-05-21T12:36:30.909Z,20.32
2023-05-21T12:39:05.511Z,20.32
2023-05-21T12:41:37.557Z,20.35
2023-05-21T12:44:10.953Z,20.39
2023-05-21T12:46:41.915Z,20.41
2023-05-21T12:49:36.803Z,20.51
2023-05-21T12:52:26.242Z,20.58
2023-05-21T12:55:00.234Z,20.59
2023-05-21T12:57:41.356Z,20.65
2023-05-21T13:00:13.475Z,20.64
2023-05-21T13:02:47.968Z,20.71
2023-05-21T13:05:20.503Z,20.73
2023-05-21T13:07:54.499Z,20.72
2023-05-21T13:10:25.505Z,20.71
2023-05-21T13:12:56.910Z,20.68
2023-05-21T13:15:28.187Z,20.69
2023-05-21T13:18:01.817Z,20.71
2023-05-21T13:20:33.447Z,20.77
2023-05-21T13:23:07.156Z,20.86
2023-05-21T13:25:39.146Z,20.93
2023-05-21T13:28:12.703Z,20.95
2023-05-21T13:30:43.478Z,20.97
2023-05-21T13:33:14.431Z,21.02
2023-05-21T13:35:45.405Z,20.99
2023-05-21T13:38:16.705Z,21.03
2023-05-21T13:40:47.981Z,21.06
2023-05-21T13:43:19.196Z,21.14
2023-05-21T13:45:51.291Z,21.22
2023-05-21T13:48:21.498Z,21.36
2023-05-21T13:50:53.189Z,21.43
2023-05-21T13:53:25.409Z,21.47
2023-05-21T13:55:56.456Z,21.51
2023-05-21T13:58:27.977Z,21.55
2023-05-21T14:00:59.076Z,21.57
2023-05-21T14:03:30.537Z,21.65
2023-05-21T14:06:01.614Z,21.73
2023-05-21T14:08:33.888Z,21.74
2023-05-21T14:11:05.007Z,21.73
2023-05-21T14:13:36.323Z,21.67
2023-05-21T14:16:08.237Z,21.74
2023-05-21T14:18:38.867Z,21.74
2023-05-21T14:21:09.734Z,21.67
2023-05-21T14:23:40.658Z,21.78
2023-05-21T14:26:11.030Z,21.87
2023-05-21T14:28:45.770Z,21.91
2023-05-21T14:31:18.859Z,21.91
2023-05-21T14:33:49.447Z,21.91
2023-05-21T14:36:20.030Z,21.94
2023-05-21T14:38:50.481Z,21.98
2023-05-21T14:41:22.108Z,21.97
2023-05-21T14:43:53.251Z,21.91
2023-05-21T14:46:25.251Z,21.92
2023-05-21T14:48:57.003Z,21.91
2023-05-21T14:51:27.373Z,21.87
2023-05-21T14:53:59.377Z,22.00
2023-05-21T14:56:31.813Z,21.94
2023-05-21T14:59:02.758Z,21.98
2023-05-21T15:01:33.544Z,22.09
2023-05-21T15:04:05.612Z,22.15
2023-05-21T15:06:36.583Z,22.29
2023-05-21T15:09:07.402Z,22.38
2023-05-21T15:11:38.439Z,22.31
2023-05-21T15:14:10.012Z,22.51
2023-05-21T15:16:41.876Z,22.59
2023-05-21T15:19:14.490Z,22.67
2023-05-21T15:21:46.608Z,22.79
2023-05-21T15:24:17.630Z,22.80
2023-05-21T15:26:50.832Z,22.79
2023-05-21T15:29:22.862Z,22.74
2023-05-21T15:32:06.676Z,22.73
2023-05-21T15:34:39.117Z,22.72
2023-05-21T15:37:10.461Z,22.73
2023-05-21T15:39:42.055Z,22.72
2023-05-21T15:42:14.440Z,22.82
2023-05-21T15:44:47.735Z,22.82
2023-05-21T15:47:19.112Z,22.87
2023-05-21T15:50:01.742Z,22.97
2023-05-21T15:55:20.016Z,22.99
2023-05-21T15:57:52.811Z,23.00
2023-05-21T16:00:26.441Z,22.97
2023-05-21T16:02:56.983Z,22.94
2023-05-21T16:05:30.460Z,22.92
2023-05-21T16:08:01.634Z,22.94
2023-05-21T16:10:32.660Z,22.96
2023-05-21T16:13:04.534Z,22.93
2023-05-21T16:15:35.873Z,22.92
2023-05-21T16:18:07.722Z,22.97
2023-05-21T16:23:48.357Z,22.97
2023-05-21T16:26:19.799Z,22.93
2023-05-21T16:28:50.056Z,22.79
2023-05-21T16:31:21.492Z,22.76
2023-05-21T16:33:52.131Z,22.76
2023-05-21T16:36:25.966Z,22.79
2023-05-21T16:38:58.658Z,22.82
2023-05-21T16:41:29.252Z,22.76
2023-05-21T16:43:59.418Z,22.76
2023-05-21T16:46:29.598Z,22.74
2023-05-21T16:49:01.220Z,22.67
2023-05-21T16:51:33.277Z,22.63
2023-05-21T16:54:07.107Z,22.57
2023-05-21T16:56:37.579Z,22.57
2023-05-21T16:59:07.756Z,22.51
2023-05-21T17:01:42.590Z,22.45
2023-05-21T17:04:14.332Z,22.39
2023-05-21T17:06:45.450Z,22.32
2023-05-21T17:09:17.078Z,22.21
2023-05-21T17:11:56.005Z,22.08
2023-05-21T17:17:03.277Z,21.95
2023-05-21T17:19:34.516Z,21.87
2023-05-21T17:22:05.735Z,21.82
2023-05-21T17:24:37.088Z,21.75
2023-05-21T17:27:07.901Z,21.75
2023-05-21T17:29:39.837Z,21.67
2023-05-21T17:32:20.451Z,21.64
2023-05-21T17:34:56.197Z,21.75
2023-05-21T17:37:29.155Z,21.70
2023-05-21T17:40:01.712Z,21.70
2023-05-21T17:42:56.578Z,21.65
2023-05-21T17:45:29.943Z,21.53
2023-05-21T17:48:01.645Z,21.54
2023-05-21T17:50:32.118Z,21.47
2023-05-21T17:53:02.262Z,21.47
2023-05-21T17:55:36.352Z,21.43
2023-05-21T17:58:08.753Z,21.43
2023-05-21T18:00:39.792Z,21.38
2023-05-21T18:03:10.707Z,21.41
2023-05-21T18:05:41.864Z,21.38
2023-05-21T18:08:12.125Z,21.34
2023-05-21T18:10:43.080Z,21.37
2023-05-21T18:13:14.382Z,21.36
2023-05-21T18:15:44.865Z,21.33
2023-05-21T18:18:21.611Z,21.36
2023-05-21T18:20:53.272Z,21.31
2023-05-21T18:23:24.260Z,21.33
2023-05-21T18:25:54.720Z,21.27
2023-05-21T18:28:26.604Z,21.29
2023-05-21T18:30:59.061Z,21.31
2023-05-21T18:33:39.997Z,21.33
2023-05-21T18:36:40.159Z,21.31
2023-05-21T18:39:12.599Z,21.29
2023-05-21T18:41:43.666Z,21.33
2023-05-21T18:44:14.874Z,21.33
2023-05-21T18:46:45.855Z,21.29
2023-05-21T18:49:36.545Z,21.30
2023-05-21T18:52:08.461Z,21.29
2023-05-21T18:54:39.611Z,21.27
2023-05-21T18:57:10.981Z,21.24
2023-05-21T18:59:43.514Z,21.23
2023-05-21T19:02:14.067Z,21.17
2023-05-21T19:04:46.956Z,21.14
2023-05-21T19:07:19.372Z,21.14
2023-05-21T19:09:55.463Z,21.10
2023-05-21T19:12:26.519Z,21.10
2023-05-21T19:15:04.262Z,21.07
2023-05-21T19:17:39.056Z,20.97
2023-05-21T19:20:12.761Z,20.95
2023-05-21T19:22:44.016Z,20.86
2023-05-21T19:25:14.512Z,20.82
2023-05-21T19:27:52.058Z,20.85
2023-05-21T19:30:23.464Z,20.85
2023-05-21T19:32:54.766Z,20.83
2023-05-21T19:35:29.586Z,20.82
2023-05-21T19:38:05.270Z,20.77
2023-05-21T19:40:36.863Z,20.76
2023-05-21T19:43:08.625Z,20.71
2023-05-21T19:45:42.303Z,20.68
2023-05-21T19:48:13.700Z,20.64
2023-05-21T19:50:45.050Z,20.59
2023-05-21T19:53:15.571Z,20.56
2023-05-21T19:55:51.275Z,20.51
2023-05-21T19:58:29.656Z,20.51
2023-05-21T20:01:03.651Z,20.53
2023-05-21T20:03:37.854Z,20.45
2023-05-21T20:06:10.832Z,20.36
2023-05-21T20:08:41.393Z,20.36
2023-05-21T20:11:13.724Z,20.38
2023-05-21T20:13:47.299Z,20.26
2023-05-21T20:16:25.220Z,20.21
2023-05-21T20:19:01.839Z,20.17
2023-05-21T20:21:37.407Z,20.05
2023-05-21T20:24:08.412Z,20.08
2023-05-21T20:26:42.921Z,20.04
2023-05-21T20:29:13.651Z,19.98
2023-05-21T20:31:45.312Z,19.93
2023-05-21T20:34:16.292Z,19.91
2023-05-21T20:36:51.054Z,19.93
2023-05-21T20:39:24.704Z,19.97
2023-05-21T20:41:57.893Z,20.01
2023-05-21T20:44:30.558Z,20.11
2023-05-21T20:47:04.143Z,20.14
2023-05-21T20:49:38.839Z,20.22
2023-05-21T20:52:10.830Z,20.29
2023-05-21T20:54:44.842Z,20.26
2023-05-21T20:57:15.520Z,20.24
2023-05-21T20:59:45.925Z,20.15
2023-05-21T21:02:20.808Z,20.14
2023-05-21T21:04:53.068Z,20.11
2023-05-21T21:07:23.796Z,20.05
2023-05-21T21:09:56.924Z,19.97
2023-05-21T21:12:28.213Z,19.98
2023-05-21T21:14:59.425Z,19.94
2023-05-21T21:17:30.714Z,19.85
2023-05-21T21:20:05.303Z,19.78
2023-05-21T21:22:36.149Z,19.75
2023-05-21T21:25:10.082Z,19.71
2023-05-21T21:27:42.489Z,19.71
2023-05-21T21:30:14.551Z,19.74
2023-05-21T21:32:46.258Z,19.70
2023-05-21T21:35:17.807Z,19.63
2023-05-21T21:37:49.101Z,19.62
2023-05-21T21:40:20.261Z,19.62
2023-05-21T21:42:52.257Z,19.53
2023-05-21T21:45:25.438Z,19.56
2023-05-21T21:48:00.625Z,19.59
2023-05-21T21:50:34.008Z,19.63
2023-05-21T21:53:05.567Z,19.63
2023-05-21T21:55:36.174Z,19.71
2023-05-21T21:58:07.954Z,19.80
2023-05-21T22:00:40.220Z,19.77
2023-05-21T22:03:14.444Z,19.73
2023-05-21T22:05:49.490Z,19.74
2023-05-21T22:08:22.793Z,19.70
2023-05-21T22:10:57.309Z,19.73
2023-05-21T22:13:30.649Z,19.75
2023-05-21T22:16:05.881Z,19.74
2023-05-21T22:18:41.198Z,19.77
2023-05-21T22:21:15.559Z,19.74
2023-05-21T22:23:52.116Z,19.71
2023-05-21T22:26:25.209Z,19.73
2023-05-21T22:29:02.540Z,19.70
2023-05-21T22:31:33.869Z,19.69
2023-05-21T22:34:09.542Z,19.71
2023-05-21T22:36:46.797Z,19.64
2023-05-21T22:39:18.112Z,19.60
2023-05-21T22:41:54.268Z,19.62
2023-05-21T22:44:28.237Z,19.56
2023-05-21T22:47:21.342Z,19.52
2023-05-21T22:49:56.513Z,19.45
2023-05-21T22:52:28.927Z,19.43
2023-05-21T22:55:02.329Z,19.42
2023-05-21T22:57:35.264Z,19.46
2023-05-21T23:00:10.390Z,19.50
2023-05-21T23:02:48.215Z,19.50
2023-05-21T23:05:21.953Z,19.47
2023-05-21T23:07:55.196Z,19.50
2023-05-21T23:10:26.963Z,19.50
2023-05-21T23:13:02.283Z,19.52
2023-05-21T23:15:33.963Z,19.56
2023-05-21T23:18:10.531Z,19.66
2023-05-21T23:20:45.253Z,19.70
2023-05-21T23:23:18.096Z,19.67
2023-05-21T23:25:51.994Z,19.73
2023-05-21T23:28:25.065Z,19.71
2023-05-21T23:30:58.339Z,19.71
2023-05-21T23:33:31.894Z,19.71
2023-05-21T23:36:03.964Z,19.66
2023-05-21T23:38:35.956Z,19.64
2023-05-21T23:43:40.480Z,19.63
2023-05-21T23:46:14.905Z,19.63
2023-05-21T23:48:47.622Z,19.71
2023-05-21T23:51:20.633Z,19.80
2023-05-21T23:53:54.034Z,19.91
2023-05-21T23:56:26.184Z,20.07
2023-05-21T23:58:58.504Z,20.07
